sensor_id;sensor_type;location;lat;lon;timestamp;P1;durP1;ratioP1;P2;durP2;ratioP2
31764;SDS011;18338;53.240;8.798;2023-04-03T00:00:37;2.27;;;1.03;;
31764;SDS011;18338;53.240;8.798;2023-04-03T00:03:04;7.07;;;1.70;;
31764;SDS011;18338;53.240;8.798;2023-04-03T00:05:31;5.10;;;1.47;;
31764;SDS011;18338;53.240;8.798;2023-04-03T00:07:58;3.03;;;1.20;;
31764;SDS011;18338;53.240;8.798;2023-04-03T00:10:24;2.70;;;1.40;;
31764;SDS011;18338;53.240;8.798;2023-04-03T00:12:51;2.63;;;1.27;;
31764;SDS011;18338;53.240;8.798;2023-04-03T00:15:18;5.40;;;2.00;;
31764;SDS011;18338;53.240;8.798;2023-04-03T00:17:44;6.23;;;1.90;;
31764;SDS011;18338;53.240;8.798;2023-04-03T00:20:11;3.00;;;1.57;;
31764;SDS011;18338;53.240;8.798;2023-04-03T00:22:38;5.83;;;1.70;;
31764;SDS011;18338;53.240;8.798;2023-04-03T00:25:05;6.93;;;1.60;;
31764;SDS011;18338;53.240;8.798;2023-04-03T00:27:32;6.87;;;2.00;;
31764;SDS011;18338;53.240;8.798;2023-04-03T00:29:59;4.53;;;1.50;;
31764;SDS011;18338;53.240;8.798;2023-04-03T00:32:26;5.20;;;1.90;;
31764;SDS011;18338;53.240;8.798;2023-04-03T00:34:52;5.60;;;2.10;;
31764;SDS011;18338;53.240;8.798;2023-04-03T00:37:19;6.30;;;1.83;;
31764;SDS011;18338;53.240;8.798;2023-04-03T00:39:46;5.23;;;1.70;;
31764;SDS011;18338;53.240;8.798;2023-04-03T00:42:12;4.70;;;1.80;;
31764;SDS011;18338;53.240;8.798;2023-04-03T00:47:07;8.20;;;2.47;;
31764;SDS011;18338;53.240;8.798;2023-04-03T00:49:37;5.73;;;2.30;;
31764;SDS011;18338;53.240;8.798;2023-04-03T00:52:05;4.43;;;2.20;;
31764;SDS011;18338;53.240;8.798;2023-04-03T00:54:35;3.07;;;1.87;;
31764;SDS011;18338;53.240;8.798;2023-04-03T00:57:03;5.40;;;2.20;;
31764;SDS011;18338;53.240;8.798;2023-04-03T00:59:34;4.17;;;2.60;;
31764;SDS011;18338;53.240;8.798;2023-04-03T01:02:06;6.50;;;2.37;;
31764;SDS011;18338;53.240;8.798;2023-04-03T01:04:34;4.40;;;2.90;;
31764;SDS011;18338;53.240;8.798;2023-04-03T01:07:16;8.53;;;2.30;;
31764;SDS011;18338;53.240;8.798;2023-04-03T01:09:46;7.47;;;2.13;;
31764;SDS011;18338;53.240;8.798;2023-04-03T01:14:48;5.07;;;2.03;;
31764;SDS011;18338;53.240;8.798;2023-04-03T01:17:35;4.83;;;2.23;;
31764;SDS011;18338;53.240;8.798;2023-04-03T01:25:43;5.97;;;3.07;;
31764;SDS011;18338;53.240;8.798;2023-04-03T01:28:22;9.83;;;2.73;;
31764;SDS011;18338;53.240;8.798;2023-04-03T01:31:14;9.60;;;2.50;;
31764;SDS011;18338;53.240;8.798;2023-04-03T01:33:50;4.70;;;2.30;;
31764;SDS011;18338;53.240;8.798;2023-04-03T01:36:28;7.93;;;2.60;;
31764;SDS011;18338;53.240;8.798;2023-04-03T01:38:57;6.97;;;2.23;;
31764;SDS011;18338;53.240;8.798;2023-04-03T01:41:25;6.07;;;2.17;;
31764;SDS011;18338;53.240;8.798;2023-04-03T01:43:53;6.13;;;2.40;;
31764;SDS011;18338;53.240;8.798;2023-04-03T01:46:20;6.23;;;2.60;;
31764;SDS011;18338;53.240;8.798;2023-04-03T01:48:47;5.37;;;2.73;;
31764;SDS011;18338;53.240;8.798;2023-04-03T01:51:15;6.83;;;2.80;;
31764;SDS011;18338;53.240;8.798;2023-04-03T01:53:42;4.07;;;2.57;;
31764;SDS011;18338;53.240;8.798;2023-04-03T01:56:09;6.83;;;2.23;;
31764;SDS011;18338;53.240;8.798;2023-04-03T01:58:36;5.93;;;3.23;;
31764;SDS011;18338;53.240;8.798;2023-04-03T02:01:03;8.50;;;2.50;;
31764;SDS011;18338;53.240;8.798;2023-04-03T02:03:30;6.23;;;2.57;;
31764;SDS011;18338;53.240;8.798;2023-04-03T02:05:58;5.93;;;2.77;;
31764;SDS011;18338;53.240;8.798;2023-04-03T02:08:25;10.30;;;2.93;;
31764;SDS011;18338;53.240;8.798;2023-04-03T02:10:52;6.47;;;2.40;;
31764;SDS011;18338;53.240;8.798;2023-04-03T02:13:19;7.27;;;2.60;;
31764;SDS011;18338;53.240;8.798;2023-04-03T02:15:46;5.00;;;3.33;;
31764;SDS011;18338;53.240;8.798;2023-04-03T02:18:14;6.60;;;2.50;;
31764;SDS011;18338;53.240;8.798;2023-04-03T02:20:41;8.20;;;2.57;;
31764;SDS011;18338;53.240;8.798;2023-04-03T02:23:08;6.33;;;2.80;;
31764;SDS011;18338;53.240;8.798;2023-04-03T02:25:35;6.57;;;2.80;;
31764;SDS011;18338;53.240;8.798;2023-04-03T02:28:04;5.73;;;2.60;;
31764;SDS011;18338;53.240;8.798;2023-04-03T02:30:31;5.77;;;2.73;;
31764;SDS011;18338;53.240;8.798;2023-04-03T02:32:58;5.63;;;3.00;;
31764;SDS011;18338;53.240;8.798;2023-04-03T02:35:25;8.20;;;3.20;;
31764;SDS011;18338;53.240;8.798;2023-04-03T02:37:52;6.60;;;2.93;;
31764;SDS011;18338;53.240;8.798;2023-04-03T02:40:18;8.80;;;3.40;;
31764;SDS011;18338;53.240;8.798;2023-04-03T02:42:45;11.80;;;3.07;;
31764;SDS011;18338;53.240;8.798;2023-04-03T02:45:12;8.50;;;3.17;;
31764;SDS011;18338;53.240;8.798;2023-04-03T02:47:38;10.17;;;3.30;;
31764;SDS011;18338;53.240;8.798;2023-04-03T02:50:05;8.43;;;3.23;;
31764;SDS011;18338;53.240;8.798;2023-04-03T02:52:32;7.07;;;3.93;;
31764;SDS011;18338;53.240;8.798;2023-04-03T02:54:59;7.10;;;3.70;;
31764;SDS011;18338;53.240;8.798;2023-04-03T02:57:26;7.57;;;3.27;;
31764;SDS011;18338;53.240;8.798;2023-04-03T02:59:52;6.67;;;3.67;;
31764;SDS011;18338;53.240;8.798;2023-04-03T03:02:19;7.73;;;3.83;;
31764;SDS011;18338;53.240;8.798;2023-04-03T03:04:46;8.97;;;3.50;;
31764;SDS011;18338;53.240;8.798;2023-04-03T03:07:13;9.97;;;3.57;;
31764;SDS011;18338;53.240;8.798;2023-04-03T03:09:40;9.83;;;3.87;;
31764;SDS011;18338;53.240;8.798;2023-04-03T03:12:06;10.33;;;3.67;;
31764;SDS011;18338;53.240;8.798;2023-04-03T03:14:33;11.47;;;4.27;;
31764;SDS011;18338;53.240;8.798;2023-04-03T03:17:00;9.90;;;4.17;;
31764;SDS011;18338;53.240;8.798;2023-04-03T03:19:27;7.80;;;4.10;;
31764;SDS011;18338;53.240;8.798;2023-04-03T03:21:53;11.30;;;4.50;;
31764;SDS011;18338;53.240;8.798;2023-04-03T03:24:21;10.93;;;4.23;;
31764;SDS011;18338;53.240;8.798;2023-04-03T03:26:47;6.57;;;4.30;;
31764;SDS011;18338;53.240;8.798;2023-04-03T03:29:14;11.70;;;4.77;;
31764;SDS011;18338;53.240;8.798;2023-04-03T03:31:41;12.33;;;4.77;;
31764;SDS011;18338;53.240;8.798;2023-04-03T03:34:08;10.57;;;5.30;;
31764;SDS011;18338;53.240;8.798;2023-04-03T03:36:34;13.53;;;5.80;;
31764;SDS011;18338;53.240;8.798;2023-04-03T03:39:01;9.43;;;4.90;;
31764;SDS011;18338;53.240;8.798;2023-04-03T03:41:28;12.40;;;5.53;;
31764;SDS011;18338;53.240;8.798;2023-04-03T03:43:54;13.20;;;6.00;;
31764;SDS011;18338;53.240;8.798;2023-04-03T03:46:21;11.67;;;5.90;;
31764;SDS011;18338;53.240;8.798;2023-04-03T03:48:48;13.57;;;5.40;;
31764;SDS011;18338;53.240;8.798;2023-04-03T03:51:15;8.93;;;6.07;;
31764;SDS011;18338;53.240;8.798;2023-04-03T03:53:42;12.33;;;5.90;;
31764;SDS011;18338;53.240;8.798;2023-04-03T03:56:09;11.17;;;6.50;;
31764;SDS011;18338;53.240;8.798;2023-04-03T03:58:36;12.17;;;6.53;;
31764;SDS011;18338;53.240;8.798;2023-04-03T04:01:04;16.00;;;7.17;;
31764;SDS011;18338;53.240;8.798;2023-04-03T04:03:32;13.17;;;6.57;;
31764;SDS011;18338;53.240;8.798;2023-04-03T04:05:59;14.70;;;6.13;;
31764;SDS011;18338;53.240;8.798;2023-04-03T04:08:26;14.20;;;6.87;;
31764;SDS011;18338;53.240;8.798;2023-04-03T04:10:53;16.43;;;7.30;;
31764;SDS011;18338;53.240;8.798;2023-04-03T04:13:19;14.30;;;7.00;;
31764;SDS011;18338;53.240;8.798;2023-04-03T04:15:46;11.10;;;7.43;;
31764;SDS011;18338;53.240;8.798;2023-04-03T04:18:13;16.00;;;7.50;;
31764;SDS011;18338;53.240;8.798;2023-04-03T04:20:40;17.53;;;7.10;;
31764;SDS011;18338;53.240;8.798;2023-04-03T04:23:06;13.60;;;7.47;;
31764;SDS011;18338;53.240;8.798;2023-04-03T04:25:33;15.77;;;6.93;;
31764;SDS011;18338;53.240;8.798;2023-04-03T04:28:00;15.37;;;7.67;;
31764;SDS011;18338;53.240;8.798;2023-04-03T04:30:27;12.33;;;7.40;;
31764;SDS011;18338;53.240;8.798;2023-04-03T04:32:54;15.07;;;7.57;;
31764;SDS011;18338;53.240;8.798;2023-04-03T04:35:21;14.30;;;7.93;;
31764;SDS011;18338;53.240;8.798;2023-04-03T04:37:48;15.63;;;7.67;;
31764;SDS011;18338;53.240;8.798;2023-04-03T04:40:15;18.13;;;8.43;;
31764;SDS011;18338;53.240;8.798;2023-04-03T04:42:41;16.70;;;8.70;;
31764;SDS011;18338;53.240;8.798;2023-04-03T04:45:08;17.23;;;8.13;;
31764;SDS011;18338;53.240;8.798;2023-04-03T04:47:35;12.83;;;8.50;;
31764;SDS011;18338;53.240;8.798;2023-04-03T04:50:02;18.40;;;8.87;;
31764;SDS011;18338;53.240;8.798;2023-04-03T04:52:29;17.80;;;8.50;;
31764;SDS011;18338;53.240;8.798;2023-04-03T04:54:56;19.63;;;8.97;;
31764;SDS011;18338;53.240;8.798;2023-04-03T04:57:22;16.93;;;9.17;;
31764;SDS011;18338;53.240;8.798;2023-04-03T04:59:49;15.67;;;8.13;;
31764;SDS011;18338;53.240;8.798;2023-04-03T05:02:16;16.63;;;8.53;;
31764;SDS011;18338;53.240;8.798;2023-04-03T05:04:43;20.27;;;9.43;;
31764;SDS011;18338;53.240;8.798;2023-04-03T05:07:09;18.03;;;8.27;;
31764;SDS011;18338;53.240;8.798;2023-04-03T05:09:36;17.50;;;8.53;;
31764;SDS011;18338;53.240;8.798;2023-04-03T05:12:03;15.13;;;8.90;;
31764;SDS011;18338;53.240;8.798;2023-04-03T05:14:30;20.47;;;9.10;;
31764;SDS011;18338;53.240;8.798;2023-04-03T05:16:57;18.03;;;8.80;;
31764;SDS011;18338;53.240;8.798;2023-04-03T05:19:24;20.70;;;8.43;;
31764;SDS011;18338;53.240;8.798;2023-04-03T05:21:50;19.33;;;9.30;;
31764;SDS011;18338;53.240;8.798;2023-04-03T05:24:17;14.67;;;8.77;;
31764;SDS011;18338;53.240;8.798;2023-04-03T05:26:44;17.53;;;9.63;;
31764;SDS011;18338;53.240;8.798;2023-04-03T05:29:11;20.87;;;9.83;;
31764;SDS011;18338;53.240;8.798;2023-04-03T05:31:38;16.83;;;9.77;;
31764;SDS011;18338;53.240;8.798;2023-04-03T05:34:05;16.70;;;9.37;;
31764;SDS011;18338;53.240;8.798;2023-04-03T05:36:32;17.87;;;9.50;;
31764;SDS011;18338;53.240;8.798;2023-04-03T05:38:59;19.47;;;9.87;;
31764;SDS011;18338;53.240;8.798;2023-04-03T05:41:26;17.37;;;9.80;;
31764;SDS011;18338;53.240;8.798;2023-04-03T05:43:53;21.07;;;10.17;;
31764;SDS011;18338;53.240;8.798;2023-04-03T05:46:20;17.47;;;10.20;;
31764;SDS011;18338;53.240;8.798;2023-04-03T05:48:47;15.67;;;9.63;;
31764;SDS011;18338;53.240;8.798;2023-04-03T05:51:15;16.57;;;9.43;;
31764;SDS011;18338;53.240;8.798;2023-04-03T05:53:44;23.03;;;10.33;;
31764;SDS011;18338;53.240;8.798;2023-04-03T05:56:12;19.83;;;10.07;;
31764;SDS011;18338;53.240;8.798;2023-04-03T05:58:39;17.97;;;9.80;;
31764;SDS011;18338;53.240;8.798;2023-04-03T06:01:06;18.90;;;9.80;;
31764;SDS011;18338;53.240;8.798;2023-04-03T06:03:33;18.17;;;9.93;;
31764;SDS011;18338;53.240;8.798;2023-04-03T06:06:04;19.40;;;9.73;;
31764;SDS011;18338;53.240;8.798;2023-04-03T06:08:31;16.83;;;9.87;;
31764;SDS011;18338;53.240;8.798;2023-04-03T06:10:59;15.83;;;9.40;;
31764;SDS011;18338;53.240;8.798;2023-04-03T06:13:25;18.87;;;10.20;;
31764;SDS011;18338;53.240;8.798;2023-04-03T06:15:53;19.40;;;9.80;;
31764;SDS011;18338;53.240;8.798;2023-04-03T06:18:19;17.07;;;9.40;;
31764;SDS011;18338;53.240;8.798;2023-04-03T06:20:46;15.20;;;9.80;;
31764;SDS011;18338;53.240;8.798;2023-04-03T06:23:13;18.77;;;9.23;;
31764;SDS011;18338;53.240;8.798;2023-04-03T06:25:40;22.63;;;9.50;;
31764;SDS011;18338;53.240;8.798;2023-04-03T06:28:08;15.00;;;8.87;;
31764;SDS011;18338;53.240;8.798;2023-04-03T06:30:36;21.57;;;9.87;;
31764;SDS011;18338;53.240;8.798;2023-04-03T06:33:03;15.83;;;8.53;;
31764;SDS011;18338;53.240;8.798;2023-04-03T06:35:30;18.50;;;9.80;;
31764;SDS011;18338;53.240;8.798;2023-04-03T06:37:57;16.33;;;8.73;;
31764;SDS011;18338;53.240;8.798;2023-04-03T06:40:24;17.67;;;8.73;;
31764;SDS011;18338;53.240;8.798;2023-04-03T06:42:52;15.63;;;8.43;;
31764;SDS011;18338;53.240;8.798;2023-04-03T06:45:19;17.10;;;8.40;;
31764;SDS011;18338;53.240;8.798;2023-04-03T06:47:46;16.53;;;8.00;;
31764;SDS011;18338;53.240;8.798;2023-04-03T06:50:15;15.10;;;8.00;;
31764;SDS011;18338;53.240;8.798;2023-04-03T06:52:43;13.80;;;7.37;;
31764;SDS011;18338;53.240;8.798;2023-04-03T06:55:09;11.37;;;7.10;;
31764;SDS011;18338;53.240;8.798;2023-04-03T06:57:36;13.40;;;7.23;;
31764;SDS011;18338;53.240;8.798;2023-04-03T07:00:04;13.37;;;6.33;;
31764;SDS011;18338;53.240;8.798;2023-04-03T07:02:33;12.13;;;6.90;;
31764;SDS011;18338;53.240;8.798;2023-04-03T07:04:59;12.20;;;6.30;;
31764;SDS011;18338;53.240;8.798;2023-04-03T07:07:26;9.80;;;6.00;;
31764;SDS011;18338;53.240;8.798;2023-04-03T07:09:53;15.13;;;6.43;;
31764;SDS011;18338;53.240;8.798;2023-04-03T07:12:20;10.47;;;5.50;;
31764;SDS011;18338;53.240;8.798;2023-04-03T07:14:46;7.80;;;4.83;;
31764;SDS011;18338;53.240;8.798;2023-04-03T07:17:13;10.27;;;4.53;;
31764;SDS011;18338;53.240;8.798;2023-04-03T07:19:40;10.23;;;4.53;;
31764;SDS011;18338;53.240;8.798;2023-04-03T07:22:07;8.23;;;3.93;;
31764;SDS011;18338;53.240;8.798;2023-04-03T07:24:34;6.57;;;3.47;;
31764;SDS011;18338;53.240;8.798;2023-04-03T07:27:01;5.20;;;3.13;;
31764;SDS011;18338;53.240;8.798;2023-04-03T07:29:28;4.63;;;2.53;;
31764;SDS011;18338;53.240;8.798;2023-04-03T07:31:56;5.93;;;2.30;;
31764;SDS011;18338;53.240;8.798;2023-04-03T07:34:23;7.40;;;2.53;;
31764;SDS011;18338;53.240;8.798;2023-04-03T07:36:50;4.03;;;1.97;;
31764;SDS011;18338;53.240;8.798;2023-04-03T07:39:17;4.30;;;1.80;;
31764;SDS011;18338;53.240;8.798;2023-04-03T07:41:43;4.77;;;1.80;;
31764;SDS011;18338;53.240;8.798;2023-04-03T07:44:10;6.17;;;2.43;;
31764;SDS011;18338;53.240;8.798;2023-04-03T07:46:37;5.13;;;1.67;;
31764;SDS011;18338;53.240;8.798;2023-04-03T07:49:04;4.30;;;1.60;;
31764;SDS011;18338;53.240;8.798;2023-04-03T07:51:31;3.87;;;1.33;;
31764;SDS011;18338;53.240;8.798;2023-04-03T07:53:58;2.27;;;1.70;;
31764;SDS011;18338;53.240;8.798;2023-04-03T07:56:25;3.97;;;1.70;;
31764;SDS011;18338;53.240;8.798;2023-04-03T07:58:52;4.43;;;1.77;;
31764;SDS011;18338;53.240;8.798;2023-04-03T08:01:20;3.40;;;1.57;;
31764;SDS011;18338;53.240;8.798;2023-04-03T08:03:46;6.30;;;1.93;;
31764;SDS011;18338;53.240;8.798;2023-04-03T08:06:14;3.13;;;1.40;;
31764;SDS011;18338;53.240;8.798;2023-04-03T08:08:42;4.50;;;1.70;;
31764;SDS011;18338;53.240;8.798;2023-04-03T08:11:09;3.93;;;1.37;;
31764;SDS011;18338;53.240;8.798;2023-04-03T08:13:36;3.93;;;1.63;;
31764;SDS011;18338;53.240;8.798;2023-04-03T08:16:11;3.03;;;1.10;;
31764;SDS011;18338;53.240;8.798;2023-04-03T08:18:39;3.80;;;1.57;;
31764;SDS011;18338;53.240;8.798;2023-04-03T08:21:07;5.07;;;1.33;;
31764;SDS011;18338;53.240;8.798;2023-04-03T08:23:36;2.80;;;1.30;;
31764;SDS011;18338;53.240;8.798;2023-04-03T08:26:10;2.83;;;0.90;;
31764;SDS011;18338;53.240;8.798;2023-04-03T08:28:41;3.47;;;0.97;;
31764;SDS011;18338;53.240;8.798;2023-04-03T08:31:10;4.00;;;1.00;;
31764;SDS011;18338;53.240;8.798;2023-04-03T08:33:38;1.80;;;0.80;;
31764;SDS011;18338;53.240;8.798;2023-04-03T08:36:07;2.13;;;0.60;;
31764;SDS011;18338;53.240;8.798;2023-04-03T08:38:41;1.42;;;0.60;;
31764;SDS011;18338;53.240;8.798;2023-04-03T08:43:52;2.67;;;0.88;;
31764;SDS011;18338;53.240;8.798;2023-04-03T08:46:32;6.72;;;0.88;;
31764;SDS011;18338;53.240;8.798;2023-04-03T08:49:02;3.90;;;1.17;;
31764;SDS011;18338;53.240;8.798;2023-04-03T08:51:33;1.33;;;0.50;;
31764;SDS011;18338;53.240;8.798;2023-04-03T08:54:02;1.55;;;0.50;;
31764;SDS011;18338;53.240;8.798;2023-04-03T08:56:34;3.50;;;0.80;;
31764;SDS011;18338;53.240;8.798;2023-04-03T08:59:04;1.10;;;0.50;;
31764;SDS011;18338;53.240;8.798;2023-04-03T09:01:37;1.67;;;0.50;;
31764;SDS011;18338;53.240;8.798;2023-04-03T09:04:10;1.80;;;0.50;;
31764;SDS011;18338;53.240;8.798;2023-04-03T09:06:42;1.58;;;0.50;;
31764;SDS011;18338;53.240;8.798;2023-04-03T09:09:25;1.65;;;0.77;;
31764;SDS011;18338;53.240;8.798;2023-04-03T09:12:18;2.88;;;0.52;;
31764;SDS011;18338;53.240;8.798;2023-04-03T09:21:11;1.45;;;0.70;;
31764;SDS011;18338;53.240;8.798;2023-04-03T09:24:00;1.42;;;0.70;;
31764;SDS011;18338;53.240;8.798;2023-04-03T09:26:30;0.70;;;0.40;;
31764;SDS011;18338;53.240;8.798;2023-04-03T09:29:18;1.48;;;0.70;;
31764;SDS011;18338;53.240;8.798;2023-04-03T09:31:49;1.52;;;0.65;;
31764;SDS011;18338;53.240;8.798;2023-04-03T09:34:37;2.30;;;0.80;;
31764;SDS011;18338;53.240;8.798;2023-04-03T09:37:07;1.13;;;0.50;;
31764;SDS011;18338;53.240;8.798;2023-04-03T09:39:50;0.85;;;0.50;;
31764;SDS011;18338;53.240;8.798;2023-04-03T09:42:20;1.35;;;0.60;;
31764;SDS011;18338;53.240;8.798;2023-04-03T09:45:18;2.40;;;0.68;;
31764;SDS011;18338;53.240;8.798;2023-04-03T09:47:48;1.38;;;0.68;;
31764;SDS011;18338;53.240;8.798;2023-04-03T09:50:30;2.20;;;0.70;;
31764;SDS011;18338;53.240;8.798;2023-04-03T09:52:57;1.75;;;0.60;;
31764;SDS011;18338;53.240;8.798;2023-04-03T09:55:25;1.80;;;0.80;;
31764;SDS011;18338;53.240;8.798;2023-04-03T09:57:56;1.27;;;0.60;;
31764;SDS011;18338;53.240;8.798;2023-04-03T10:00:33;2.60;;;0.50;;
31764;SDS011;18338;53.240;8.798;2023-04-03T10:03:03;2.20;;;0.50;;
31764;SDS011;18338;53.240;8.798;2023-04-03T10:05:35;1.15;;;0.43;;
31764;SDS011;18338;53.240;8.798;2023-04-03T10:10:41;0.95;;;0.30;;
31764;SDS011;18338;53.240;8.798;2023-04-03T10:13:12;2.03;;;0.80;;
31764;SDS011;18338;53.240;8.798;2023-04-03T10:15:58;1.40;;;0.40;;
31764;SDS011;18338;53.240;8.798;2023-04-03T10:21:06;0.95;;;0.32;;
31764;SDS011;18338;53.240;8.798;2023-04-03T10:24:13;1.20;;;0.50;;
31764;SDS011;18338;53.240;8.798;2023-04-03T10:29:43;1.60;;;0.55;;
31764;SDS011;18338;53.240;8.798;2023-04-03T10:34:46;0.63;;;0.40;;
31764;SDS011;18338;53.240;8.798;2023-04-03T10:37:30;1.15;;;0.50;;
31764;SDS011;18338;53.240;8.798;2023-04-03T10:40:24;0.95;;;0.40;;
31764;SDS011;18338;53.240;8.798;2023-04-03T10:45:57;1.40;;;0.50;;
31764;SDS011;18338;53.240;8.798;2023-04-03T10:51:19;1.35;;;0.40;;
31764;SDS011;18338;53.240;8.798;2023-04-03T10:56:37;1.73;;;0.57;;
31764;SDS011;18338;53.240;8.798;2023-04-03T10:59:47;2.00;;;0.70;;
31764;SDS011;18338;53.240;8.798;2023-04-03T11:05:01;0.88;;;0.52;;
31764;SDS011;18338;53.240;8.798;2023-04-03T11:07:39;1.48;;;0.50;;
31764;SDS011;18338;53.240;8.798;2023-04-03T11:10:21;1.25;;;0.60;;
31764;SDS011;18338;53.240;8.798;2023-04-03T11:13:06;2.03;;;0.63;;
31764;SDS011;18338;53.240;8.798;2023-04-03T11:15:39;1.67;;;0.80;;
31764;SDS011;18338;53.240;8.798;2023-04-03T11:18:14;1.85;;;0.70;;
31764;SDS011;18338;53.240;8.798;2023-04-03T11:20:49;1.33;;;0.57;;
31764;SDS011;18338;53.240;8.798;2023-04-03T11:23:25;3.33;;;0.70;;
31764;SDS011;18338;53.240;8.798;2023-04-03T11:26:11;1.73;;;0.70;;
31764;SDS011;18338;53.240;8.798;2023-04-03T11:28:40;2.25;;;0.55;;
31764;SDS011;18338;53.240;8.798;2023-04-03T11:31:10;0.82;;;0.70;;
31764;SDS011;18338;53.240;8.798;2023-04-03T11:36:26;1.02;;;0.60;;
31764;SDS011;18338;53.240;8.798;2023-04-03T11:39:07;2.03;;;0.50;;
31764;SDS011;18338;53.240;8.798;2023-04-03T11:41:44;1.88;;;0.70;;
31764;SDS011;18338;53.240;8.798;2023-04-03T11:47:06;1.40;;;0.65;;
31764;SDS011;18338;53.240;8.798;2023-04-03T11:49:51;1.30;;;0.70;;
31764;SDS011;18338;53.240;8.798;2023-04-03T11:55:41;0.70;;;0.60;;
31764;SDS011;18338;53.240;8.798;2023-04-03T12:05:53;0.82;;;0.52;;
31764;SDS011;18338;53.240;8.798;2023-04-03T12:08:46;1.90;;;0.60;;
31764;SDS011;18338;53.240;8.798;2023-04-03T12:11:31;1.05;;;0.80;;
31764;SDS011;18338;53.240;8.798;2023-04-03T12:16:33;2.38;;;0.68;;
31764;SDS011;18338;53.240;8.798;2023-04-03T12:29:35;2.05;;;0.70;;
31764;SDS011;18338;53.240;8.798;2023-04-03T12:43:28;2.67;;;1.00;;
31764;SDS011;18338;53.240;8.798;2023-04-03T12:48:32;1.55;;;0.75;;
31764;SDS011;18338;53.240;8.798;2023-04-03T12:51:18;2.72;;;1.00;;
31764;SDS011;18338;53.240;8.798;2023-04-03T12:53:48;3.65;;;1.75;;
31764;SDS011;18338;53.240;8.798;2023-04-03T12:56:18;2.03;;;0.68;;
31764;SDS011;18338;53.240;8.798;2023-04-03T12:58:45;1.95;;;0.68;;
31764;SDS011;18338;53.240;8.798;2023-04-03T13:01:13;2.67;;;1.20;;
31764;SDS011;18338;53.240;8.798;2023-04-03T13:03:45;2.30;;;0.93;;
31764;SDS011;18338;53.240;8.798;2023-04-03T13:06:24;2.03;;;0.70;;
31764;SDS011;18338;53.240;8.798;2023-04-03T13:08:56;1.08;;;0.52;;
31764;SDS011;18338;53.240;8.798;2023-04-03T13:11:27;2.85;;;0.82;;
31764;SDS011;18338;53.240;8.798;2023-04-03T13:14:00;2.72;;;0.90;;
31764;SDS011;18338;53.240;8.798;2023-04-03T13:16:40;2.78;;;0.80;;
31764;SDS011;18338;53.240;8.798;2023-04-03T13:19:15;1.40;;;0.68;;
31764;SDS011;18338;53.240;8.798;2023-04-03T13:21:43;1.95;;;1.20;;
31764;SDS011;18338;53.240;8.798;2023-04-03T13:24:11;2.03;;;0.60;;
31764;SDS011;18338;53.240;8.798;2023-04-03T13:26:41;1.33;;;0.63;;
31764;SDS011;18338;53.240;8.798;2023-04-03T13:29:19;1.67;;;0.90;;
31764;SDS011;18338;53.240;8.798;2023-04-03T13:31:57;2.10;;;0.90;;
31764;SDS011;18338;53.240;8.798;2023-04-03T13:34:27;1.77;;;0.80;;
31764;SDS011;18338;53.240;8.798;2023-04-03T13:36:58;6.40;;;1.95;;
31764;SDS011;18338;53.240;8.798;2023-04-03T13:39:34;11.35;;;3.63;;
31764;SDS011;18338;53.240;8.798;2023-04-03T13:45:05;9.00;;;3.63;;
31764;SDS011;18338;53.240;8.798;2023-04-03T13:48:06;2.42;;;0.80;;
31764;SDS011;18338;53.240;8.798;2023-04-03T13:50:53;1.90;;;0.63;;
31764;SDS011;18338;53.240;8.798;2023-04-03T13:53:26;5.85;;;1.05;;
31764;SDS011;18338;53.240;8.798;2023-04-03T13:58:26;1.52;;;0.60;;
31764;SDS011;18338;53.240;8.798;2023-04-03T14:01:14;2.13;;;1.05;;
31764;SDS011;18338;53.240;8.798;2023-04-03T14:06:18;1.17;;;0.60;;
31764;SDS011;18338;53.240;8.798;2023-04-03T14:08:45;1.58;;;0.70;;
31764;SDS011;18338;53.240;8.798;2023-04-03T14:11:19;2.03;;;0.70;;
31764;SDS011;18338;53.240;8.798;2023-04-03T14:13:49;2.25;;;0.68;;
31764;SDS011;18338;53.240;8.798;2023-04-03T14:16:18;1.67;;;0.70;;
31764;SDS011;18338;53.240;8.798;2023-04-03T14:18:47;1.52;;;0.80;;
31764;SDS011;18338;53.240;8.798;2023-04-03T14:21:16;2.85;;;1.00;;
31764;SDS011;18338;53.240;8.798;2023-04-03T14:23:44;0.75;;;0.68;;
31764;SDS011;18338;53.240;8.798;2023-04-03T14:26:13;2.60;;;1.00;;
31764;SDS011;18338;53.240;8.798;2023-04-03T14:28:45;1.13;;;0.70;;
31764;SDS011;18338;53.240;8.798;2023-04-03T14:31:13;1.75;;;0.88;;
31764;SDS011;18338;53.240;8.798;2023-04-03T14:33:42;2.65;;;0.80;;
31764;SDS011;18338;53.240;8.798;2023-04-03T14:36:15;1.77;;;0.85;;
31764;SDS011;18338;53.240;8.798;2023-04-03T14:39:00;1.73;;;0.70;;
31764;SDS011;18338;53.240;8.798;2023-04-03T14:41:28;1.75;;;1.02;;
31764;SDS011;18338;53.240;8.798;2023-04-03T14:43:55;0.93;;;0.68;;
31764;SDS011;18338;53.240;8.798;2023-04-03T14:46:28;2.50;;;0.90;;
31764;SDS011;18338;53.240;8.798;2023-04-03T14:49:21;2.55;;;1.00;;
31764;SDS011;18338;53.240;8.798;2023-04-03T14:51:50;2.55;;;0.90;;
31764;SDS011;18338;53.240;8.798;2023-04-03T14:54:19;1.65;;;0.80;;
31764;SDS011;18338;53.240;8.798;2023-04-03T14:56:51;1.77;;;0.90;;
31764;SDS011;18338;53.240;8.798;2023-04-03T14:59:19;2.22;;;1.08;;
31764;SDS011;18338;53.240;8.798;2023-04-03T15:01:48;1.75;;;0.82;;
31764;SDS011;18338;53.240;8.798;2023-04-03T15:04:16;1.15;;;0.80;;
31764;SDS011;18338;53.240;8.798;2023-04-03T15:06:45;2.90;;;0.80;;
31764;SDS011;18338;53.240;8.798;2023-04-03T15:09:23;2.05;;;0.90;;
31764;SDS011;18338;53.240;8.798;2023-04-03T15:11:52;2.25;;;1.00;;
31764;SDS011;18338;53.240;8.798;2023-04-03T15:14:19;1.60;;;0.70;;
31764;SDS011;18338;53.240;8.798;2023-04-03T15:17:02;2.60;;;1.00;;
31764;SDS011;18338;53.240;8.798;2023-04-03T15:19:35;1.73;;;0.70;;
31764;SDS011;18338;53.240;8.798;2023-04-03T15:22:04;1.92;;;1.00;;
31764;SDS011;18338;53.240;8.798;2023-04-03T15:24:30;2.13;;;0.88;;
31764;SDS011;18338;53.240;8.798;2023-04-03T15:26:57;1.38;;;0.90;;
31764;SDS011;18338;53.240;8.798;2023-04-03T15:29:26;1.75;;;1.02;;
31764;SDS011;18338;53.240;8.798;2023-04-03T15:31:54;1.85;;;0.80;;
31764;SDS011;18338;53.240;8.798;2023-04-03T15:34:20;1.63;;;0.95;;
31764;SDS011;18338;53.240;8.798;2023-04-03T15:36:48;1.25;;;0.70;;
31764;SDS011;18338;53.240;8.798;2023-04-03T15:39:19;2.83;;;0.90;;
31764;SDS011;18338;53.240;8.798;2023-04-03T15:41:46;1.80;;;0.80;;
31764;SDS011;18338;53.240;8.798;2023-04-03T15:44:13;1.75;;;0.80;;
31764;SDS011;18338;53.240;8.798;2023-04-03T15:46:44;2.08;;;0.90;;
31764;SDS011;18338;53.240;8.798;2023-04-03T15:49:14;1.85;;;0.90;;
31764;SDS011;18338;53.240;8.798;2023-04-03T15:51:48;1.80;;;0.77;;
31764;SDS011;18338;53.240;8.798;2023-04-03T15:54:15;1.25;;;0.60;;
31764;SDS011;18338;53.240;8.798;2023-04-03T15:56:41;2.05;;;1.00;;
31764;SDS011;18338;53.240;8.798;2023-04-03T15:59:08;2.35;;;1.20;;
31764;SDS011;18338;53.240;8.798;2023-04-03T16:01:35;3.22;;;1.02;;
31764;SDS011;18338;53.240;8.798;2023-04-03T16:04:03;2.30;;;0.85;;
31764;SDS011;18338;53.240;8.798;2023-04-03T16:06:31;2.05;;;0.88;;
31764;SDS011;18338;53.240;8.798;2023-04-03T16:09:02;1.88;;;1.25;;
31764;SDS011;18338;53.240;8.798;2023-04-03T16:11:29;1.55;;;1.00;;
31764;SDS011;18338;53.240;8.798;2023-04-03T16:13:56;2.33;;;1.00;;
31764;SDS011;18338;53.240;8.798;2023-04-03T16:16:23;1.65;;;0.93;;
31764;SDS011;18338;53.240;8.798;2023-04-03T16:18:53;1.80;;;0.90;;
31764;SDS011;18338;53.240;8.798;2023-04-03T16:21:21;2.20;;;0.85;;
31764;SDS011;18338;53.240;8.798;2023-04-03T16:23:48;3.00;;;0.90;;
31764;SDS011;18338;53.240;8.798;2023-04-03T16:26:16;1.98;;;0.90;;
31764;SDS011;18338;53.240;8.798;2023-04-03T16:28:43;2.72;;;1.08;;
31764;SDS011;18338;53.240;8.798;2023-04-03T16:31:10;2.47;;;0.85;;
31764;SDS011;18338;53.240;8.798;2023-04-03T16:33:37;2.85;;;1.20;;